Time;durP1;ratioP1;P1;durP2;ratioP2;P2;SDS_P1;SDS_P2;PMS_P1;PMS_P2;Temp;Humidity;BMP_temperature;BMP_pressure;BME280_temperature;BME280_humidity;BME280_pressure;Samples;Min_cycle;Max_cycle;Signal;HPM_P1;HPM_P2
2023/08/14 00:02:04;;;;;;;7.07;4.45;;;16.70;99.90;;;;;;5097199;28;20169;-77
2023/08/14 00:04:30;;;;;;;8.82;4.13;;;16.70;99.90;;;;;;5097390;28;20173;-77
2023/08/14 00:06:55;;;;;;;9.50;3.90;;;16.60;99.90;;;;;;5097289;28;20560;-77
2023/08/14 00:09:21;;;;;;;8.85;4.72;;;16.50;99.90;;;;;;5097380;28;20316;-78
2023/08/14 00:11:47;;;;;;;8.05;3.83;;;16.50;99.90;;;;;;5098181;28;20181;-78
2023/08/14 00:14:13;;;;;;;8.85;3.97;;;16.40;99.90;;;;;;5099707;28;20168;-77
2023/08/14 00:16:38;;;;;;;11.05;3.75;;;16.40;99.90;;;;;;5099414;28;20206;-77
2023/08/14 00:19:04;;;;;;;7.35;4.13;;;16.40;99.90;;;;;;5099672;28;20232;-78
2023/08/14 00:21:30;;;;;;;6.68;4.05;;;16.40;99.90;;;;;;5097577;28;20643;-77
2023/08/14 00:23:55;;;;;;;9.85;3.97;;;16.40;99.90;;;;;;5096792;28;20181;-78
2023/08/14 00:26:21;;;;;;;7.88;3.83;;;16.40;99.90;;;;;;5097637;28;20177;-78
2023/08/14 00:28:47;;;;;;;7.85;4.18;;;16.40;99.90;;;;;;5098207;28;20217;-77
2023/08/14 00:31:13;;;;;;;6.53;3.65;;;16.40;99.90;;;;;;5097954;28;20173;-77
2023/08/14 00:33:39;;;;;;;5.40;3.47;;;16.40;99.90;;;;;;5105520;28;20196;-78
2023/08/14 00:36:07;;;;;;;8.57;4.03;;;16.30;99.90;;;;;;5097222;28;20264;-77
2023/08/14 00:38:33;;;;;;;6.13;4.15;;;16.30;99.90;;;;;;5097059;28;20197;-78
2023/08/14 00:40:59;;;;;;;5.28;3.90;;;16.20;99.90;;;;;;5105378;28;20667;-79
2023/08/14 00:43:25;;;;;;;6.30;3.90;;;16.20;99.90;;;;;;5098401;28;20185;-77
2023/08/14 00:45:55;;;;;;;6.40;3.88;;;16.20;99.90;;;;;;5094271;28;20268;-77
2023/08/14 00:48:23;;;;;;;6.95;3.95;;;16.10;99.90;;;;;;5096256;28;20193;-77
2023/08/14 00:50:48;;;;;;;7.53;4.20;;;16.10;99.90;;;;;;5099138;28;20629;-77
2023/08/14 00:53:15;;;;;;;8.10;4.15;;;16.00;99.90;;;;;;5099466;28;20180;-78
2023/08/14 00:55:41;;;;;;;7.32;4.07;;;16.00;99.90;;;;;;5099589;28;20180;-78
2023/08/14 00:58:08;;;;;;;9.48;4.32;;;16.00;99.90;;;;;;5099110;28;20185;-78
2023/08/14 01:00:35;;;;;;;7.43;4.30;;;16.00;99.90;;;;;;5096922;28;20588;-77
2023/08/14 01:03:02;;;;;;;8.00;4.15;;;16.00;99.90;;;;;;5095409;28;20177;-77
2023/08/14 01:05:28;;;;;;;5.72;4.32;;;16.00;99.90;;;;;;5093706;28;20208;-77
2023/08/14 01:07:55;;;;;;;8.45;4.63;;;16.00;99.90;;;;;;5095338;28;20245;-77
2023/08/14 01:10:21;;;;;;;7.50;3.90;;;15.90;99.90;;;;;;5096803;28;20346;-77
2023/08/14 01:13:03;;;;;;;4.82;3.92;;;15.80;99.90;;;;;;5096635;28;20179;-77
2023/08/14 01:15:41;;;;;;;5.60;4.00;;;15.80;99.90;;;;;;5095617;28;20173;-77
2023/08/14 01:18:09;;;;;;;6.45;4.10;;;15.70;99.90;;;;;;5095816;28;20655;-77
2023/08/14 01:20:37;;;;;;;10.73;4.65;;;15.70;99.90;;;;;;5095240;28;20179;-77
2023/08/14 01:23:22;;;;;;;12.85;4.90;;;15.70;99.90;;;;;;5094205;28;20184;-77
2023/08/14 01:25:51;;;;;;;7.35;4.53;;;15.70;99.90;;;;;;5094193;28;20171;-77
2023/08/14 01:28:17;;;;;;;7.55;4.13;;;15.60;99.90;;;;;;5094500;28;20215;-79
2023/08/14 01:30:43;;;;;;;6.95;4.30;;;15.60;99.90;;;;;;5094199;28;20295;-77
2023/08/14 01:33:09;;;;;;;6.65;4.68;;;15.60;99.90;;;;;;5095865;28;20193;-77
2023/08/14 01:36:23;;;;;;;4.68;4.18;;;15.60;99.90;;;;;;5094240;28;20596;-77
2023/08/14 01:39:19;;;;;;;5.38;3.70;;;15.60;99.90;;;;;;5057174;28;20197;-77
2023/08/14 01:41:55;;;;;;;7.97;4.05;;;15.60;99.90;;;;;;5041576;28;20670;-77
2023/08/14 01:44:24;;;;;;;7.03;4.30;;;15.60;99.90;;;;;;5090771;28;20234;-77
2023/08/14 01:46:52;;;;;;;6.80;4.35;;;15.60;99.90;;;;;;5095664;28;20184;-77
2023/08/14 01:49:19;;;;;;;8.20;4.45;;;15.50;99.90;;;;;;5096312;28;20201;-77
2023/08/14 01:51:52;;;;;;;7.95;4.60;;;15.50;99.90;;;;;;5098629;28;20173;-77
2023/08/14 01:54:18;;;;;;;6.63;4.50;;;15.40;99.90;;;;;;5098423;28;20176;-77
2023/08/14 01:56:44;;;;;;;7.85;4.32;;;15.40;99.90;;;;;;5098531;28;20185;-76
2023/08/14 01:59:10;;;;;;;10.43;4.47;;;15.40;99.90;;;;;;5099747;28;20197;-77
2023/08/14 02:01:36;;;;;;;8.88;4.40;;;15.40;99.90;;;;;;5098433;28;20169;-77
2023/08/14 02:04:02;;;;;;;9.63;5.03;;;15.50;99.90;;;;;;5098907;28;20185;-77
2023/08/14 02:06:27;;;;;;;6.93;4.40;;;15.40;99.90;;;;;;5098407;28;20197;-77
2023/08/14 02:08:53;;;;;;;6.00;4.45;;;15.40;99.90;;;;;;5099785;28;20664;-77
2023/08/14 02:11:19;;;;;;;7.00;4.88;;;15.30;99.90;;;;;;5099318;28;20656;-77
2023/08/14 02:13:44;;;;;;;6.63;4.80;;;15.30;99.90;;;;;;5099687;28;20539;-77
2023/08/14 02:16:10;;;;;;;6.57;4.30;;;15.30;99.90;;;;;;5099438;28;20543;-77
2023/08/14 02:18:36;;;;;;;8.63;4.72;;;15.30;99.90;;;;;;5099832;28;20604;-77
2023/08/14 02:21:02;;;;;;;6.00;4.57;;;15.30;99.90;;;;;;5100642;28;20166;-78
2023/08/14 02:23:27;;;;;;;5.05;4.55;;;15.30;99.90;;;;;;5101906;28;20170;-77
2023/08/14 02:25:54;;;;;;;7.68;4.40;;;15.30;99.90;;;;;;5101073;28;20694;-77
2023/08/14 02:28:20;;;;;;;7.10;4.10;;;15.10;99.90;;;;;;5101347;28;20199;-77
2023/08/14 02:30:46;;;;;;;5.57;4.18;;;15.10;99.90;;;;;;5099226;28;20218;-77
2023/08/14 02:33:12;;;;;;;5.47;3.88;;;15.00;99.90;;;;;;5100712;28;20185;-77
2023/08/14 02:35:38;;;;;;;5.18;3.90;;;14.90;99.90;;;;;;5098605;28;20184;-77
2023/08/14 02:38:07;;;;;;;8.57;3.80;;;14.90;99.90;;;;;;5098572;28;20177;-77
2023/08/14 02:40:33;;;;;;;8.07;4.15;;;14.80;99.90;;;;;;5098615;28;20173;-77
2023/08/14 02:43:01;;;;;;;5.18;3.65;;;14.70;99.90;;;;;;5098462;28;20183;-78
2023/08/14 02:45:27;;;;;;;6.32;4.30;;;14.70;99.90;;;;;;5099493;28;20174;-77
2023/08/14 02:47:52;;;;;;;5.28;4.07;;;14.70;99.90;;;;;;5099650;28;20641;-77
2023/08/14 02:50:21;;;;;;;7.03;4.10;;;14.70;99.90;;;;;;5098021;28;20604;-77
2023/08/14 02:52:49;;;;;;;5.95;3.95;;;14.60;99.90;;;;;;5099423;28;20161;-77
2023/08/14 02:55:15;;;;;;;8.23;4.63;;;14.60;99.90;;;;;;5098509;28;20540;-77
2023/08/14 02:57:41;;;;;;;6.82;3.75;;;14.60;99.90;;;;;;5100201;28;20202;-77
2023/08/14 03:00:08;;;;;;;4.82;4.07;;;14.60;99.90;;;;;;5098493;28;20200;-77
2023/08/14 03:02:34;;;;;;;7.57;3.72;;;14.60;99.90;;;;;;5100052;28;20545;-77
2023/08/14 03:05:00;;;;;;;8.55;4.35;;;14.60;99.90;;;;;;5098081;28;20256;-77
2023/08/14 03:07:26;;;;;;;4.93;3.65;;;14.60;99.90;;;;;;5098533;28;20189;-78
2023/08/14 03:09:52;;;;;;;5.35;3.92;;;14.60;99.90;;;;;;5096859;28;20642;-77
2023/08/14 03:12:18;;;;;;;6.05;3.50;;;14.60;99.90;;;;;;5096928;28;20201;-77
2023/08/14 03:14:44;;;;;;;5.80;3.25;;;14.60;99.90;;;;;;5096986;28;20173;-77
2023/08/14 03:17:10;;;;;;;7.95;3.70;;;14.60;99.90;;;;;;5097003;28;20173;-77
2023/08/14 03:19:35;;;;;;;5.25;3.42;;;14.60;99.90;;;;;;5097185;28;20196;-77
2023/08/14 03:22:01;;;;;;;6.22;4.03;;;14.60;99.90;;;;;;5098195;28;20185;-78
2023/08/14 03:24:27;;;;;;;7.93;3.90;;;14.50;99.90;;;;;;5096993;28;20223;-77
2023/08/14 03:26:53;;;;;;;4.57;3.70;;;14.50;99.90;;;;;;5098397;28;20225;-77
2023/08/14 03:29:18;;;;;;;8.15;3.80;;;14.40;99.90;;;;;;5098380;28;20237;-77
2023/08/14 03:31:44;;;;;;;4.82;3.90;;;14.40;99.90;;;;;;5098641;28;20174;-77
2023/08/14 03:34:10;;;;;;;5.38;3.28;;;14.40;99.90;;;;;;5096996;28;20267;-77
2023/08/14 03:36:36;;;;;;;4.25;3.45;;;14.20;99.90;;;;;;5097328;28;20169;-77
2023/08/14 03:39:02;;;;;;;5.78;2.97;;;14.20;99.90;;;;;;5097425;28;20205;-77
2023/08/14 03:41:28;;;;;;;3.42;3.13;;;14.10;99.90;;;;;;5099043;28;20675;-77
2023/08/14 03:43:53;;;;;;;5.30;3.05;;;14.10;99.90;;;;;;5099474;28;20169;-77
2023/08/14 03:46:19;;;;;;;3.70;3.30;;;14.10;99.90;;;;;;5098165;28;20513;-77
2023/08/14 03:48:45;;;;;;;5.40;3.60;;;14.10;99.90;;;;;;5098746;28;20215;-77
2023/08/14 03:51:10;;;;;;;3.80;3.17;;;14.10;99.90;;;;;;5101087;28;20687;-78
2023/08/14 03:53:36;;;;;;;8.02;3.55;;;14.20;99.90;;;;;;5099454;28;20173;-78
2023/08/14 03:56:02;;;;;;;4.63;3.50;;;14.20;99.90;;;;;;5098542;28;20184;-78
2023/08/14 03:58:28;;;;;;;11.05;4.10;;;14.10;99.90;;;;;;5100720;28;20207;-78
2023/08/14 04:00:53;;;;;;;6.05;3.90;;;14.10;99.90;;;;;;5100822;28;20161;-78
2023/08/14 04:03:19;;;;;;;6.65;3.83;;;14.10;99.90;;;;;;5099513;28;20264;-77
2023/08/14 04:05:45;;;;;;;6.15;4.55;;;14.20;99.90;;;;;;5100180;28;20193;-78
2023/08/14 04:08:11;;;;;;;12.05;5.82;;;14.10;99.90;;;;;;5102072;28;20173;-78
2023/08/14 04:10:39;;;;;;;9.43;4.47;;;14.10;99.90;;;;;;5105143;28;20236;-77
2023/08/14 04:13:05;;;;;;;4.70;4.00;;;14.00;99.90;;;;;;5110972;28;20181;-77
2023/08/14 04:15:31;;;;;;;4.88;4.32;;;14.00;99.90;;;;;;5101999;28;20183;-77
2023/08/14 04:17:57;;;;;;;4.85;3.95;;;14.00;99.90;;;;;;5098539;28;20196;-77
2023/08/14 04:20:23;;;;;;;7.70;4.75;;;13.90;99.90;;;;;;5097623;28;20661;-77
2023/08/14 04:22:49;;;;;;;5.82;4.70;;;13.90;99.90;;;;;;5098783;28;20177;-77
2023/08/14 04:25:16;;;;;;;6.63;4.70;;;13.90;99.90;;;;;;5097506;28;20180;-78
2023/08/14 04:27:42;;;;;;;6.10;4.50;;;13.80;99.90;;;;;;5092654;28;20612;-78
2023/08/14 04:30:08;;;;;;;4.80;3.65;;;13.80;99.90;;;;;;5077669;28;20219;-78
2023/08/14 04:32:35;;;;;;;4.68;3.78;;;13.70;99.90;;;;;;5078076;28;20174;-78
2023/08/14 04:35:00;;;;;;;6.13;3.90;;;13.80;99.90;;;;;;5079325;28;20634;-78
2023/08/14 04:37:26;;;;;;;4.00;3.42;;;13.70;99.90;;;;;;5085540;28;20257;-78
2023/08/14 04:39:52;;;;;;;7.18;3.70;;;13.70;99.90;;;;;;5080143;28;20686;-78
2023/08/14 04:42:19;;;;;;;5.57;3.35;;;13.70;99.90;;;;;;5079927;28;20231;-78
2023/08/14 04:44:53;;;;;;;5.20;3.17;;;13.70;99.90;;;;;;5077722;28;20205;-78
2023/08/14 04:47:19;;;;;;;5.80;3.67;;;13.70;99.90;;;;;;5077847;28;20175;-78
2023/08/14 04:49:45;;;;;;;4.55;3.50;;;13.70;99.90;;;;;;5078768;28;20644;-78
2023/08/14 04:52:10;;;;;;;5.45;3.80;;;13.80;99.90;;;;;;5080313;28;20291;-78
2023/08/14 04:54:36;;;;;;;4.82;3.95;;;13.80;99.90;;;;;;5081948;28;20208;-78
2023/08/14 04:57:02;;;;;;;8.10;3.75;;;13.80;99.90;;;;;;5084042;28;20186;-78
2023/08/14 04:59:28;;;;;;;4.65;3.95;;;13.90;99.90;;;;;;5082251;28;20205;-78
2023/08/14 05:01:54;;;;;;;5.47;3.90;;;14.00;99.90;;;;;;5078310;28;20184;-76
2023/08/14 05:04:21;;;;;;;5.93;3.60;;;14.00;99.90;;;;;;5073291;28;20178;-77
2023/08/14 05:06:47;;;;;;;6.93;4.07;;;14.00;99.90;;;;;;5073500;28;20247;-76
2023/08/14 05:09:13;;;;;;;6.40;4.35;;;14.00;99.90;;;;;;5072638;28;20626;-77
2023/08/14 05:11:39;;;;;;;4.35;3.95;;;14.00;99.90;;;;;;5072718;28;20174;-77
2023/08/14 05:14:05;;;;;;;7.85;4.05;;;14.00;99.90;;;;;;5072445;28;20202;-76
2023/08/14 05:16:31;;;;;;;4.03;3.65;;;14.10;99.90;;;;;;5073995;28;20185;-76
2023/08/14 05:18:57;;;;;;;5.43;4.00;;;14.10;99.90;;;;;;5072400;28;20197;-77
2023/08/14 05:21:22;;;;;;;3.47;3.17;;;14.10;99.90;;;;;;5073113;28;20178;-76
2023/08/14 05:23:48;;;;;;;6.65;3.40;;;14.20;99.90;;;;;;5073386;28;20171;-77
2023/08/14 05:26:14;;;;;;;10.38;3.92;;;14.30;99.90;;;;;;5074022;28;20657;-77
2023/08/14 05:28:39;;;;;;;4.55;3.60;;;14.40;99.90;;;;;;5072358;28;20220;-76
2023/08/14 05:31:08;;;;;;;8.45;4.10;;;14.40;99.90;;;;;;5072398;28;20226;-76
2023/08/14 05:33:34;;;;;;;9.05;4.32;;;14.50;99.90;;;;;;5074029;28;20166;-76
2023/08/14 05:36:00;;;;;;;7.07;4.18;;;14.60;99.90;;;;;;5072923;28;20173;-76
2023/08/14 05:38:25;;;;;;;8.20;4.15;;;14.70;99.90;;;;;;5072749;28;20247;-77
2023/08/14 05:40:51;;;;;;;3.80;3.50;;;14.70;99.90;;;;;;5072908;28;20189;-77
2023/08/14 05:43:17;;;;;;;8.27;4.43;;;14.80;99.90;;;;;;5072391;28;20666;-76
2023/08/14 05:45:45;;;;;;;6.45;4.32;;;14.80;99.90;;;;;;5072312;28;20181;-76
2023/08/14 05:48:12;;;;;;;4.35;3.80;;;14.90;99.90;;;;;;5072349;28;20174;-77
2023/08/14 05:50:39;;;;;;;7.97;4.65;;;15.00;99.90;;;;;;5073574;28;20331;-77
2023/08/14 05:53:06;;;;;;;7.28;4.70;;;15.10;99.90;;;;;;5072526;28;20181;-77
2023/08/14 05:55:36;;;;;;;7.95;4.60;;;15.20;99.90;;;;;;5072492;28;20673;-77
2023/08/14 05:58:03;;;;;;;10.05;4.78;;;15.20;99.90;;;;;;5072387;28;20265;-77
2023/08/14 06:00:30;;;;;;;10.65;4.93;;;15.30;99.90;;;;;;5072320;28;20212;-76
2023/08/14 06:02:56;;;;;;;11.65;4.68;;;15.40;99.90;;;;;;5072190;28;20245;-77
2023/08/14 06:05:22;;;;;;;10.43;4.95;;;15.50;99.90;;;;;;5072142;28;20193;-77
2023/08/14 06:07:50;;;;;;;7.63;4.70;;;15.60;99.90;;;;;;5074305;28;20173;-77
2023/08/14 06:10:17;;;;;;;7.90;4.63;;;15.70;99.90;;;;;;5072874;28;20266;-76
2023/08/14 06:12:44;;;;;;;7.15;4.55;;;15.80;99.90;;;;;;5074447;28;20178;-76
2023/08/14 06:15:11;;;;;;;6.50;4.20;;;15.90;99.90;;;;;;5072982;28;20181;-77
2023/08/14 06:17:36;;;;;;;10.65;5.00;;;16.00;99.90;;;;;;5072430;28;20178;-77
2023/08/14 06:20:03;;;;;;;8.00;5.22;;;16.10;99.90;;;;;;5072232;28;20202;-76
2023/08/14 06:22:29;;;;;;;9.35;5.95;;;16.20;99.90;;;;;;5073451;28;20174;-77
2023/08/14 06:24:55;;;;;;;11.55;5.25;;;16.30;99.90;;;;;;5072040;28;20185;-77
2023/08/14 06:27:20;;;;;;;12.00;6.60;;;16.40;99.90;;;;;;5072100;28;20646;-76
2023/08/14 06:29:47;;;;;;;12.25;5.63;;;16.50;99.90;;;;;;5073302;28;20208;-77
2023/08/14 06:32:12;;;;;;;13.85;6.07;;;16.60;99.90;;;;;;5071801;28;20174;-76
2023/08/14 06:34:38;;;;;;;6.97;5.03;;;16.70;99.90;;;;;;5072765;28;20219;-76
2023/08/14 06:37:04;;;;;;;10.00;6.05;;;16.80;99.90;;;;;;5075672;28;20201;-76
2023/08/14 06:39:30;;;;;;;11.90;6.65;;;16.80;99.90;;;;;;5076967;28;20212;-77
2023/08/14 06:41:56;;;;;;;8.05;5.55;;;16.80;99.90;;;;;;5077604;28;20514;-76
2023/08/14 06:44:22;;;;;;;8.02;4.72;;;16.90;99.90;;;;;;5077184;28;20253;-77
2023/08/14 06:46:48;;;;;;;11.13;5.70;;;17.00;99.90;;;;;;5076664;28;20665;-77
2023/08/14 06:49:13;;;;;;;6.85;4.72;;;17.10;99.90;;;;;;5076548;28;20205;-77
2023/08/14 06:51:39;;;;;;;8.23;5.05;;;17.20;99.90;;;;;;5075926;28;20568;-77
2023/08/14 06:54:05;;;;;;;11.15;5.35;;;17.40;99.90;;;;;;5075988;28;20188;-77
2023/08/14 06:56:31;;;;;;;12.60;6.22;;;17.40;99.90;;;;;;5077065;28;20166;-77
2023/08/14 06:58:57;;;;;;;12.32;5.78;;;17.50;99.90;;;;;;5076595;28;20285;-77
2023/08/14 07:01:23;;;;;;;11.00;5.40;;;17.60;99.90;;;;;;5076798;28;20173;-76
2023/08/14 07:03:49;;;;;;;8.90;5.40;;;17.60;99.90;;;;;;5075154;28;20225;-77
2023/08/14 07:06:15;;;;;;;8.88;5.70;;;17.70;99.90;;;;;;5074629;28;20229;-77
2023/08/14 07:08:41;;;;;;;12.40;5.82;;;17.90;99.90;;;;;;5074787;28;20198;-77
2023/08/14 07:11:08;;;;;;;12.27;5.65;;;18.00;99.90;;;;;;5074776;28;20219;-77
2023/08/14 07:13:34;;;;;;;9.75;5.05;;;18.10;99.90;;;;;;5075252;28;20174;-77
2023/08/14 07:16:00;;;;;;;6.35;4.32;;;18.20;99.90;;;;;;5075983;28;20656;-76
2023/08/14 07:18:25;;;;;;;7.15;4.93;;;18.40;99.90;;;;;;5075929;28;20856;-76
2023/08/14 07:20:52;;;;;;;10.65;4.57;;;18.60;99.90;;;;;;5075858;28;20249;-76
2023/08/14 07:23:19;;;;;;;9.35;5.15;;;18.80;99.90;;;;;;5074623;28;20288;-76
2023/08/14 07:25:45;;;;;;;9.40;4.63;;;19.00;99.90;;;;;;5074673;28;20207;-77
2023/08/14 07:28:11;;;;;;;10.73;5.07;;;19.20;99.90;;;;;;5074386;28;20217;-77
2023/08/14 07:30:38;;;;;;;10.73;4.63;;;19.30;99.90;;;;;;5075704;28;20267;-77
2023/08/14 07:33:05;;;;;;;9.88;4.43;;;19.50;99.90;;;;;;5074853;28;20173;-77
2023/08/14 07:35:31;;;;;;;8.15;4.72;;;19.60;99.90;;;;;;5074307;28;20178;-77
2023/08/14 07:37:58;;;;;;;12.13;4.53;;;19.70;99.90;;;;;;5074346;28;20550;-77
2023/08/14 07:40:24;;;;;;;8.30;4.40;;;19.80;99.90;;;;;;5074249;28;20197;-77
2023/08/14 07:42:50;;;;;;;10.27;4.10;;;19.80;99.90;;;;;;5075370;28;20174;-77
2023/08/14 07:45:16;;;;;;;7.28;4.22;;;19.90;99.90;;;;;;5074412;28;20231;-77
2023/08/14 07:47:42;;;;;;;12.05;4.57;;;20.00;99.90;;;;;;5072895;28;20255;-76
2023/08/14 07:50:09;;;;;;;8.85;4.13;;;20.00;99.90;;;;;;5073844;28;20230;-77
2023/08/14 07:52:34;;;;;;;10.38;4.00;;;20.10;99.90;;;;;;5074541;28;20281;-77
2023/08/14 07:55:01;;;;;;;6.35;3.30;;;20.20;99.90;;;;;;5073892;28;20702;-77
2023/08/14 07:57:27;;;;;;;10.90;3.63;;;20.30;99.90;;;;;;5073817;28;20177;-77
2023/08/14 07:59:53;;;;;;;9.10;3.95;;;20.40;99.90;;;;;;5073722;28;20612;-77
2023/08/14 08:02:19;;;;;;;6.30;3.40;;;20.60;99.90;;;;;;5073514;28;20177;-76
2023/08/14 08:04:45;;;;;;;8.27;3.88;;;20.70;99.90;;;;;;5073642;28;20178;-77
2023/08/14 08:07:11;;;;;;;8.85;4.07;;;20.80;99.90;;;;;;5073515;28;20272;-77
2023/08/14 08:09:37;;;;;;;10.35;4.03;;;20.80;99.90;;;;;;5073451;28;20205;-77
2023/08/14 08:12:03;;;;;;;6.38;3.50;;;20.70;99.90;;;;;;5073643;28;20208;-77
2023/08/14 08:14:29;;;;;;;7.28;3.83;;;20.80;99.90;;;;;;5074827;28;20216;-77
2023/08/14 08:16:55;;;;;;;6.65;3.50;;;20.90;99.90;;;;;;5073378;28;20215;-76
2023/08/14 08:19:21;;;;;;;8.13;3.78;;;21.10;99.90;;;;;;5074989;28;20669;-76
2023/08/14 08:21:47;;;;;;;9.65;3.90;;;21.20;99.90;;;;;;5075234;28;20691;-77
2023/08/14 08:24:13;;;;;;;7.75;3.65;;;21.20;99.90;;;;;;5074840;28;20182;-77
2023/08/14 08:26:38;;;;;;;8.38;3.70;;;21.20;99.90;;;;;;5073551;28;20182;-77
2023/08/14 08:29:07;;;;;;;10.13;3.67;;;21.20;99.90;;;;;;5073181;28;20259;-77
2023/08/14 08:31:33;;;;;;;5.13;3.22;;;21.20;99.90;;;;;;5074411;28;20174;-76
2023/08/14 08:33:59;;;;;;;8.57;3.33;;;21.20;99.90;;;;;;5074532;28;20521;-77
2023/08/14 08:36:25;;;;;;;4.25;3.00;;;21.30;99.90;;;;;;5073130;28;20213;-77
2023/08/14 08:38:50;;;;;;;5.85;3.33;;;21.40;99.90;;;;;;5073040;28;20194;-77
2023/08/14 08:41:26;;;;;;;7.72;3.25;;;21.40;99.90;;;;;;5074281;28;20205;-77
2023/08/14 08:44:01;;;;;;;6.97;3.38;;;21.50;99.90;;;;;;5073122;28;20684;-77
2023/08/14 08:46:28;;;;;;;8.23;3.03;;;21.80;99.90;;;;;;5074169;28;20503;-76
2023/08/14 08:48:54;;;;;;;12.63;3.00;;;22.30;99.90;;;;;;5073996;28;20280;-77
2023/08/14 08:51:21;;;;;;;6.20;2.70;;;22.70;1.00;;;;;;5074336;28;20248;-77
2023/08/14 08:53:48;;;;;;;8.82;3.67;;;23.10;1.00;;;;;;5074036;28;20150;-76
2023/08/14 08:56:14;;;;;;;9.60;3.47;;;23.20;1.00;;;;;;5073885;28;20174;-77
2023/08/14 08:58:41;;;;;;;6.68;2.70;;;23.40;1.00;;;;;;5072438;28;20266;-76
2023/08/14 09:01:07;;;;;;;9.93;3.58;;;23.50;1.00;;;;;;5072288;28;20228;-76
2023/08/14 09:03:32;;;;;;;9.70;3.33;;;23.80;1.00;;;;;;5072819;28;20192;-76
2023/08/14 09:05:59;;;;;;;6.45;3.25;;;23.70;99.90;;;;;;5073616;28;20185;-77
2023/08/14 09:08:25;;;;;;;8.07;3.67;;;23.80;1.00;;;;;;5073613;28;20203;-76
2023/08/14 09:10:50;;;;;;;9.10;3.30;;;23.90;99.90;;;;;;5073704;28;20204;-77
2023/08/14 09:13:16;;;;;;;8.75;3.25;;;23.80;99.90;;;;;;5073645;28;20666;-77
2023/08/14 09:15:43;;;;;;;12.43;3.42;;;23.90;99.90;;;;;;5073693;28;20209;-76
2023/08/14 09:18:12;;;;;;;7.75;2.80;;;24.20;1.00;;;;;;5073327;28;20169;-76
2023/08/14 09:20:39;;;;;;;8.15;3.15;;;24.40;1.00;;;;;;5072303;28;20178;-76
2023/08/14 09:23:12;;;;;;;9.35;3.13;;;24.10;1.00;;;;;;5073812;28;20174;-77
2023/08/14 09:25:44;;;;;;;6.20;2.78;;;24.10;1.00;;;;;;5073800;28;20188;-77
2023/08/14 09:28:10;;;;;;;9.55;3.10;;;24.30;1.00;;;;;;5073446;28;20208;-77
2023/08/14 09:30:37;;;;;;;6.65;3.20;;;24.60;1.00;;;;;;5072127;28;20197;-76
2023/08/14 09:33:08;;;;;;;8.88;2.75;;;24.70;1.00;;;;;;5073323;28;20170;-77
2023/08/14 09:35:37;;;;;;;9.25;3.35;;;24.90;1.00;;;;;;5072325;28;20721;-76
2023/08/14 09:38:04;;;;;;;9.00;2.70;;;25.20;99.90;;;;;;5073562;28;20232;-76
2023/08/14 09:40:31;;;;;;;8.55;3.45;;;25.20;99.90;;;;;;5071915;28;20285;-76
2023/08/14 09:42:57;;;;;;;8.55;3.35;;;25.20;1.00;;;;;;5072108;28;20696;-76
2023/08/14 09:45:24;;;;;;;4.35;3.03;;;25.20;1.00;;;;;;5072031;28;20185;-76
2023/08/14 09:47:50;;;;;;;7.85;3.05;;;24.80;1.00;;;;;;5071805;28;20539;-76
2023/08/14 09:50:17;;;;;;;7.55;3.05;;;24.60;99.90;;;;;;5071866;28;20262;-76
2023/08/14 09:52:43;;;;;;;6.10;2.97;;;24.50;99.90;;;;;;5071921;28;20178;-76
2023/08/14 09:55:10;;;;;;;6.80;3.17;;;24.50;99.90;;;;;;5072145;28;20230;-76
2023/08/14 09:57:37;;;;;;;9.57;3.33;;;24.50;1.00;;;;;;5071828;28;20259;-76
2023/08/14 10:00:04;;;;;;;5.38;2.92;;;24.50;99.90;;;;;;5072079;28;20202;-76
2023/08/14 10:02:32;;;;;;;7.25;3.15;;;24.80;1.00;;;;;;5072952;28;20174;-76
2023/08/14 10:05:00;;;;;;;9.15;3.10;;;24.80;1.00;;;;;;5072056;28;20204;-76
2023/08/14 10:07:27;;;;;;;4.82;2.75;;;25.00;1.00;;;;;;5073018;28;20635;-76
2023/08/14 10:09:57;;;;;;;6.72;2.60;;;25.00;99.90;;;;;;5073045;28;20242;-77
2023/08/14 10:12:33;;;;;;;11.45;3.17;;;25.10;1.00;;;;;;5077423;28;20505;-76
2023/08/14 10:15:11;;;;;;;10.40;3.63;;;25.10;99.90;;;;;;5077250;28;20168;-76
2023/08/14 10:17:58;;;;;;;7.78;3.47;;;25.00;1.00;;;;;;5077057;28;20569;-76
2023/08/14 10:20:26;;;;;;;9.13;2.95;;;25.10;1.00;;;;;;5076780;28;20565;-76
2023/08/14 10:22:52;;;;;;;5.97;2.70;;;25.20;1.00;;;;;;5075634;28;20177;-77
2023/08/14 10:25:22;;;;;;;8.65;3.22;;;25.30;28.30;;;;;;5075637;28;20169;-76
2023/08/14 10:27:52;;;;;;;5.75;2.90;;;25.40;99.90;;;;;;5078332;28;20181;-80
2023/08/14 10:30:22;;;;;;;8.10;3.20;;;25.50;1.00;;;;;;5084573;28;20205;-80
2023/08/14 10:32:49;;;;;;;7.82;3.00;;;25.70;99.90;;;;;;5086453;28;20184;-79
2023/08/14 10:35:15;;;;;;;8.60;3.20;;;25.70;1.00;;;;;;5088367;28;20173;-79
2023/08/14 10:37:44;;;;;;;5.15;3.17;;;25.50;99.90;;;;;;5087968;28;20174;-79
2023/08/14 10:40:28;;;;;;;7.03;2.95;;;25.60;1.00;;;;;;5086490;28;20198;-79
2023/08/14 10:42:58;;;;;;;7.78;3.80;;;25.80;99.90;;;;;;5084902;28;20186;-80
2023/08/14 10:45:27;;;;;;;8.68;3.63;;;25.90;1.00;;;;;;5085077;28;20181;-79
2023/08/14 10:47:58;;;;;;;7.85;3.22;;;25.90;1.00;;;;;;5082495;28;20204;-78
2023/08/14 10:50:25;;;;;;;6.18;3.25;;;25.90;1.00;;;;;;5084673;28;20209;-79
2023/08/14 10:52:54;;;;;;;5.80;2.83;;;25.70;99.90;;;;;;5085271;28;20201;-79
2023/08/14 10:55:24;;;;;;;4.85;2.83;;;25.60;99.90;;;;;;5086045;28;20222;-79
2023/08/14 10:57:50;;;;;;;8.88;3.20;;;25.60;99.90;;;;;;5085947;28;20200;-79
2023/08/14 11:00:21;;;;;;;6.38;3.20;;;25.50;99.90;;;;;;5084356;28;20263;-79
2023/08/14 11:03:06;;;;;;;6.80;2.90;;;25.40;1.00;;;;;;5081650;28;20177;-79
2023/08/14 11:05:39;;;;;;;7.45;3.20;;;25.20;99.90;;;;;;5080026;28;20197;-79
2023/08/14 11:08:07;;;;;;;6.22;2.90;;;25.20;1.00;;;;;;5080233;28;20539;-79
2023/08/14 11:10:34;;;;;;;10.98;3.33;;;25.30;1.00;;;;;;5080757;28;20628;-78
2023/08/14 11:13:01;;;;;;;8.38;3.15;;;25.30;1.00;;;;;;5082027;28;20166;-78
2023/08/14 11:15:31;;;;;;;12.18;3.05;;;25.20;99.90;;;;;;5080396;28;20195;-78
2023/08/14 11:17:57;;;;;;;7.65;3.00;;;25.20;99.90;;;;;;5080593;28;20186;-78
2023/08/14 11:20:31;;;;;;;7.97;3.10;;;25.30;1.00;;;;;;5080666;28;20201;-78
2023/08/14 11:22:59;;;;;;;6.43;3.38;;;25.20;60.60;;;;;;5080118;28;20165;-79
2023/08/14 11:25:25;;;;;;;7.85;2.88;;;25.20;1.00;;;;;;5081053;28;20235;-78
2023/08/14 11:27:55;;;;;;;6.07;2.90;;;25.20;99.90;;;;;;5080501;28;20181;-78
2023/08/14 11:30:23;;;;;;;8.88;3.25;;;25.40;1.00;;;;;;5080320;28;20210;-78
2023/08/14 11:32:50;;;;;;;8.50;3.22;;;25.40;99.90;;;;;;5081487;28;20193;-78
2023/08/14 11:35:17;;;;;;;9.13;3.33;;;25.30;1.00;;;;;;5080324;28;20181;-78
2023/08/14 11:37:45;;;;;;;5.85;3.10;;;25.40;99.90;;;;;;5081194;28;20169;-79
2023/08/14 11:40:13;;;;;;;9.98;3.33;;;25.60;99.90;;;;;;5081282;28;20197;-78
2023/08/14 11:42:39;;;;;;;7.93;2.97;;;25.90;99.90;;;;;;5082304;28;20196;-78
2023/08/14 11:45:06;;;;;;;5.50;3.03;;;25.80;99.90;;;;;;5080742;28;20245;-78
2023/08/14 11:47:34;;;;;;;7.65;3.28;;;25.80;1.00;;;;;;5082229;28;20181;-78
2023/08/14 11:50:01;;;;;;;9.10;2.97;;;25.90;99.90;;;;;;5081933;28;20236;-78
2023/08/14 11:52:27;;;;;;;9.23;3.38;;;26.00;1.00;;;;;;5081815;28;20553;-79
2023/08/14 11:54:57;;;;;;;6.40;3.20;;;26.10;1.00;;;;;;5081222;28;20181;-78
2023/08/14 11:57:27;;;;;;;10.35;2.92;;;26.00;99.90;;;;;;5082622;28;20170;-78
2023/08/14 11:59:54;;;;;;;7.28;2.72;;;25.90;99.90;;;;;;5082919;28;20194;-79
2023/08/14 12:02:20;;;;;;;6.15;3.10;;;25.90;99.90;;;;;;5081368;28;20239;-78
2023/08/14 12:04:51;;;;;;;6.78;2.95;;;26.20;1.00;;;;;;5082942;28;20580;-79
2023/08/14 12:07:21;;;;;;;7.18;3.10;;;26.60;1.00;;;;;;5081645;28;20204;-79
2023/08/14 12:09:49;;;;;;;14.90;3.22;;;26.80;99.90;;;;;;5081473;28;20205;-78
2023/08/14 12:12:16;;;;;;;10.55;3.30;;;26.80;99.90;;;;;;5082193;28;20256;-79
2023/08/14 12:14:45;;;;;;;8.43;3.40;;;26.60;99.90;;;;;;5081425;28;20169;-79
2023/08/14 12:17:13;;;;;;;7.25;3.20;;;26.30;1.00;;;;;;5081940;28;20172;-78
2023/08/14 12:19:39;;;;;;;5.50;3.13;;;26.20;99.90;;;;;;5080810;28;20209;-79
2023/08/14 12:22:09;;;;;;;8.57;2.90;;;26.30;99.90;;;;;;5083283;28;20257;-79
2023/08/14 12:24:42;;;;;;;7.63;3.17;;;26.50;1.00;;;;;;5082683;28;20600;-79
2023/08/14 12:27:34;;;;;;;6.75;3.00;;;26.50;99.90;;;;;;5083169;28;20178;-79
2023/08/14 12:30:01;;;;;;;4.47;2.42;;;26.60;99.90;;;;;;5087274;28;20224;-79
2023/08/14 12:32:27;;;;;;;11.85;3.22;;;27.00;84.80;;;;;;5082502;28;20170;-78
2023/08/14 12:34:53;;;;;;;7.22;3.00;;;26.90;1.00;;;;;;5081517;28;20638;-79
2023/08/14 12:37:20;;;;;;;7.28;3.13;;;26.60;99.90;;;;;;5084144;28;20185;-79
2023/08/14 12:39:52;;;;;;;9.68;3.38;;;26.50;1.00;;;;;;5090454;28;20193;-79
2023/08/14 12:42:18;;;;;;;7.32;2.60;;;26.30;99.90;;;;;;5090807;28;20194;-79
2023/08/14 12:44:44;;;;;;;8.32;3.13;;;26.10;1.00;;;;;;5087035;28;20246;-78
2023/08/14 12:47:10;;;;;;;5.65;3.00;;;25.90;99.90;;;;;;5086741;28;20181;-78
2023/08/14 12:49:36;;;;;;;13.60;3.10;;;25.80;99.90;;;;;;5087810;28;20233;-78